Time;durP1;ratioP1;P1;durP2;ratioP2;P2;SDS_P1;SDS_P2;PMS_P1;PMS_P2;Temp;Humidity;BMP_temperature;BMP_pressure;BME280_temperature;BME280_humidity;BME280_pressure;Samples;Min_cycle;Max_cycle;Signal;HPM_P1;HPM_P2
2022/04/25 00:00:12;;;;;;;;;;;22.90;43.60;;;;;;696424;28;1350;-81
2022/04/25 00:00:35;;;;;;;;;;;22.90;43.60;;;;;;697025;28;921;-82
2022/04/25 00:00:55;;;;;;;;;;;22.90;43.60;;;;;;696919;28;842;-82
2022/04/25 00:01:16;;;;;;;;;;;22.90;43.60;;;;;;696890;28;917;-82
2022/04/25 00:01:37;;;;;;;;;;;22.90;43.50;;;;;;697029;28;873;-81
2022/04/25 00:01:59;;;;;;;;;;;22.90;43.60;;;;;;696951;28;814;-81
2022/04/25 00:02:20;;;;;;;;;;;22.90;43.60;;;;;;697054;28;919;-81
2022/04/25 00:02:40;;;;;;;;;;;22.90;43.70;;;;;;697066;28;841;-82
2022/04/25 00:03:02;;;;;;;;;;;22.90;43.50;;;;;;697165;28;873;-80
2022/04/25 00:03:22;;;;;;;;;;;22.90;43.30;;;;;;697061;28;902;-80
2022/04/25 00:03:43;;;;;;;;;;;22.90;43.30;;;;;;697023;28;925;-81
2022/04/25 00:04:04;;;;;;;;;;;22.90;43.20;;;;;;697135;28;941;-82
2022/04/25 00:04:24;;;;;;;;;;;22.90;43.30;;;;;;697061;28;834;-81
2022/04/25 00:04:45;;;;;;;;;;;23.60;43.60;;;;;;697186;28;806;-81
2022/04/25 00:05:06;;;;;;;;;;;22.90;43.10;;;;;;697167;28;803;-82
2022/04/25 00:05:26;;;;;;;;;;;22.90;43.00;;;;;;697082;28;810;-80
2022/04/25 00:05:47;;;;;;;;;;;22.90;42.80;;;;;;696979;28;795;-82
2022/04/25 00:06:07;;;;;;;;;;;22.90;42.80;;;;;;697164;28;920;-81
2022/04/25 00:06:28;;;;;;;;;;;22.90;42.90;;;;;;697076;28;913;-81
2022/04/25 00:06:48;;;;;;;;;;;22.90;42.70;;;;;;697039;28;897;-81
2022/04/25 00:07:09;;;;;;;;;;;22.90;42.80;;;;;;696986;28;1910;-81
2022/04/25 00:07:29;;;;;;;;;;;22.90;42.90;;;;;;697276;28;803;-81
2022/04/25 00:07:50;;;;;;;;;;;22.90;43.10;;;;;;696805;28;1359;-80
2022/04/25 00:08:10;;;;;;;;;;;22.90;43.10;;;;;;696886;28;799;-82
2022/04/25 00:08:31;;;;;;;;;;;22.90;43.00;;;;;;696990;28;902;-82
2022/04/25 00:08:52;;;;;;;;;;;22.90;42.90;;;;;;696873;28;905;-81
2022/04/25 00:09:12;;;;;;;;;;;22.90;42.90;;;;;;696820;28;849;-80
2022/04/25 00:09:33;;;;;;;;;;;22.90;43.10;;;;;;697057;28;834;-81
2022/04/25 00:09:53;;;;;;;;;;;22.90;43.10;;;;;;697026;28;889;-83
2022/04/25 00:10:14;;;;;;;;;;;22.90;42.80;;;;;;696755;28;1219;-81
2022/04/25 00:10:34;;;;;;;;;;;22.90;43.00;;;;;;697090;28;823;-80
2022/04/25 00:10:55;;;;;;;;;;;22.90;42.90;;;;;;696839;28;882;-79
2022/04/25 00:11:16;;;;;;;;;;;22.90;42.90;;;;;;696912;28;775;-80
2022/04/25 00:11:36;;;;;;;;;;;22.90;42.90;;;;;;696998;28;771;-79
2022/04/25 00:11:57;;;;;;;;;;;22.90;42.90;;;;;;697091;28;897;-80
2022/04/25 00:12:17;;;;;;;;;;;22.80;42.80;;;;;;696920;28;1372;-82
2022/04/25 00:12:38;;;;;;;;;;;22.80;42.90;;;;;;697206;28;936;-80
2022/04/25 00:12:58;;;;;;;;;;;22.90;43.10;;;;;;697127;28;874;-81
2022/04/25 00:13:19;;;;;;;;;;;22.90;43.10;;;;;;697042;28;803;-81
2022/04/25 00:13:40;;;;;;;;;;;22.80;42.90;;;;;;697050;28;905;-80
2022/04/25 00:14:00;;;;;;;;;;;22.80;43.00;;;;;;697156;28;942;-80
2022/04/25 00:14:21;;;;;;;;;;;22.80;42.90;;;;;;696998;28;897;-81
2022/04/25 00:14:41;;;;;;;;;;;22.80;42.90;;;;;;697068;28;882;-81
2022/04/25 00:15:02;;;;;;;;;;;22.80;43.00;;;;;;696691;28;890;-80
2022/04/25 00:15:23;;;;;;;;;;;22.80;44.10;;;;;;696696;28;874;-80
2022/04/25 00:15:43;;;;;;;;;;;22.80;43.00;;;;;;696944;28;859;-80
2022/04/25 00:16:04;;;;;;;;;;;22.80;42.90;;;;;;697213;28;850;-80
2022/04/25 00:16:26;;;;;;;;;;;22.80;43.00;;;;;;697077;28;873;-81
2022/04/25 00:16:46;;;;;;;;;;;22.80;42.90;;;;;;697076;28;890;-80
2022/04/25 00:17:07;;;;;;;;;;;22.80;42.90;;;;;;697153;28;866;-81
2022/04/25 00:17:28;;;;;;;;;;;22.80;42.90;;;;;;697102;28;886;-80
2022/04/25 00:17:48;;;;;;;;;;;22.80;42.90;;;;;;697004;28;854;-81
2022/04/25 00:18:09;;;;;;;;;;;22.80;42.90;;;;;;697086;28;901;-81
2022/04/25 00:18:29;;;;;;;;;;;22.80;42.80;;;;;;697248;28;826;-81
2022/04/25 00:18:50;;;;;;;;;;;22.80;42.80;;;;;;696996;28;837;-82
2022/04/25 00:19:10;;;;;;;;;;;22.80;42.90;;;;;;696994;28;866;-80
2022/04/25 00:19:31;;;;;;;;;;;22.80;42.90;;;;;;697133;28;906;-82
2022/04/25 00:19:52;;;;;;;;;;;22.80;42.80;;;;;;697062;28;815;-80
2022/04/25 00:20:13;;;;;;;;;;;22.80;42.90;;;;;;697027;28;878;-82
2022/04/25 00:20:33;;;;;;;;;;;22.80;43.00;;;;;;696295;28;1400;-80
2022/04/25 00:20:55;;;;;;;;;;;22.80;43.10;;;;;;696781;28;870;-81
2022/04/25 00:21:15;;;;;;;;;;;22.80;43.00;;;;;;696803;28;869;-81
2022/04/25 00:21:36;;;;;;;;;;;22.80;42.90;;;;;;697016;28;885;-82
2022/04/25 00:21:57;;;;;;;;;;;22.80;43.00;;;;;;696754;28;921;-82
2022/04/25 00:22:17;;;;;;;;;;;22.80;43.00;;;;;;696795;28;925;-81
2022/04/25 00:22:38;;;;;;;;;;;22.80;43.00;;;;;;697132;28;901;-83
2022/04/25 00:23:04;;;;;;;;;;;22.80;43.10;;;;;;696957;28;782;-81
2022/04/25 00:23:24;;;;;;;;;;;22.80;43.10;;;;;;697159;28;822;-82
2022/04/25 00:23:45;;;;;;;;;;;22.80;42.90;;;;;;697045;28;861;-80
2022/04/25 00:24:06;;;;;;;;;;;22.80;42.90;;;;;;697110;28;799;-82
2022/04/25 00:24:26;;;;;;;;;;;22.80;42.90;;;;;;697010;28;918;-82
2022/04/25 00:24:48;;;;;;;;;;;22.80;42.90;;;;;;697028;28;850;-80
2022/04/25 00:25:08;;;;;;;;;;;22.80;42.90;;;;;;697050;28;857;-80
2022/04/25 00:25:29;;;;;;;;;;;22.80;42.80;;;;;;697109;28;933;-81
2022/04/25 00:25:50;;;;;;;;;;;22.80;42.90;;;;;;696978;28;799;-80
2022/04/25 00:26:10;;;;;;;;;;;22.80;42.90;;;;;;697062;28;899;-80
2022/04/25 00:26:31;;;;;;;;;;;22.80;42.90;;;;;;697046;28;1092;-82
2022/04/25 00:26:51;;;;;;;;;;;22.80;42.90;;;;;;696977;28;980;-81
2022/04/25 00:27:12;;;;;;;;;;;22.80;42.90;;;;;;693980;28;1910;-81
2022/04/25 00:27:33;;;;;;;;;;;22.80;42.90;;;;;;691422;28;1342;-82
2022/04/25 00:27:54;;;;;;;;;;;22.80;42.90;;;;;;691387;28;921;-82
2022/04/25 00:28:14;;;;;;;;;;;22.80;42.90;;;;;;691318;28;832;-82
2022/04/25 00:28:35;;;;;;;;;;;22.80;43.00;;;;;;691606;28;510;-83
2022/04/25 00:28:55;;;;;;;;;;;22.80;43.00;;;;;;691796;28;867;-81
2022/04/25 00:29:16;;;;;;;;;;;22.70;42.90;;;;;;694188;28;882;-80
2022/04/25 00:29:37;;;;;;;;;;;22.70;42.90;;;;;;697168;28;850;-81
2022/04/25 00:29:57;;;;;;;;;;;22.70;44.00;;;;;;696989;28;968;-82
2022/04/25 00:30:18;;;;;;;;;;;22.70;43.10;;;;;;696964;28;833;-80
2022/04/25 00:30:38;;;;;;;;;;;22.70;43.00;;;;;;697025;28;826;-81
2022/04/25 00:30:59;;;;;;;;;;;22.70;43.00;;;;;;697093;28;846;-82
2022/04/25 00:31:19;;;;;;;;;;;22.70;42.90;;;;;;696943;28;902;-80
2022/04/25 00:31:41;;;;;;;;;;;22.70;42.90;;;;;;696968;28;899;-79
2022/04/25 00:32:01;;;;;;;;;;;22.70;42.90;;;;;;697102;28;870;-80
2022/04/25 00:32:23;;;;;;;;;;;22.70;42.80;;;;;;696916;28;843;-79
2022/04/25 00:32:44;;;;;;;;;;;22.70;42.90;;;;;;697018;28;826;-79
2022/04/25 00:33:04;;;;;;;;;;;22.70;43.10;;;;;;697055;28;889;-80
2022/04/25 00:33:26;;;;;;;;;;;22.70;43.00;;;;;;696889;28;893;-80
2022/04/25 00:33:47;;;;;;;;;;;22.70;42.90;;;;;;697185;28;802;-80
2022/04/25 00:34:07;;;;;;;;;;;22.70;42.80;;;;;;694233;28;819;-80
2022/04/25 00:34:28;;;;;;;;;;;22.70;42.80;;;;;;693952;28;882;-80
2022/04/25 00:34:49;;;;;;;;;;;22.70;42.90;;;;;;693741;28;959;-79
2022/04/25 00:35:10;;;;;;;;;;;22.70;43.90;;;;;;694076;28;795;-82
2022/04/25 00:35:30;;;;;;;;;;;22.70;42.90;;;;;;694143;28;838;-81
2022/04/25 00:35:51;;;;;;;;;;;22.70;42.80;;;;;;694304;28;795;-80
2022/04/25 00:36:11;;;;;;;;;;;22.70;42.80;;;;;;696964;28;933;-82
2022/04/25 00:36:32;;;;;;;;;;;22.70;42.90;;;;;;697201;28;830;-81
2022/04/25 00:36:53;;;;;;;;;;;22.70;43.00;;;;;;694007;28;1353;-81
2022/04/25 00:37:13;;;;;;;;;;;22.70;43.00;;;;;;694040;28;803;-82
2022/04/25 00:37:34;;;;;;;;;;;22.70;43.10;;;;;;694074;28;854;-80
2022/04/25 00:37:54;;;;;;;;;;;22.70;43.00;;;;;;694066;28;838;-82
2022/04/25 00:38:15;;;;;;;;;;;22.70;43.00;;;;;;694011;28;1219;-80
2022/04/25 00:38:35;;;;;;;;;;;22.70;42.80;;;;;;694125;28;974;-80
2022/04/25 00:38:56;;;;;;;;;;;22.70;42.80;;;;;;696937;28;930;-81
2022/04/25 00:39:17;;;;;;;;;;;22.70;42.90;;;;;;696937;28;917;-79
2022/04/25 00:39:37;;;;;;;;;;;22.70;42.80;;;;;;697010;28;909;-81
2022/04/25 00:39:58;;;;;;;;;;;22.70;42.80;;;;;;696388;28;1258;-81
2022/04/25 00:40:19;;;;;;;;;;;22.70;42.90;;;;;;696743;28;893;-81
2022/04/25 00:40:40;;;;;;;;;;;22.70;42.90;;;;;;696861;28;893;-80
2022/04/25 00:41:01;;;;;;;;;;;22.70;42.90;;;;;;696859;28;858;-81
2022/04/25 00:41:21;;;;;;;;;;;22.60;42.90;;;;;;696833;28;896;-80
2022/04/25 00:41:42;;;;;;;;;;;22.70;43.00;;;;;;696845;28;869;-81
2022/04/25 00:42:03;;;;;;;;;;;22.70;42.80;;;;;;697105;28;937;-82
2022/04/25 00:42:23;;;;;;;;;;;22.70;42.80;;;;;;696920;28;929;-79
2022/04/25 00:42:44;;;;;;;;;;;22.70;42.80;;;;;;697059;28;898;-79
2022/04/25 00:43:05;;;;;;;;;;;22.70;42.80;;;;;;697079;28;849;-79
2022/04/25 00:43:26;;;;;;;;;;;22.70;42.90;;;;;;697032;28;857;-80
2022/04/25 00:43:46;;;;;;;;;;;22.60;42.80;;;;;;696952;28;845;-80
2022/04/25 00:44:07;;;;;;;;;;;22.60;42.80;;;;;;697084;28;894;-80
2022/04/25 00:44:27;;;;;;;;;;;22.60;42.80;;;;;;696920;28;833;-80
2022/04/25 00:44:48;;;;;;;;;;;22.70;42.90;;;;;;697118;28;968;-80
2022/04/25 00:45:12;;;;;;;;;;;22.60;42.80;;;;;;697040;28;787;-81
2022/04/25 00:45:33;;;;;;;;;;;22.60;42.80;;;;;;697102;28;950;-79
2022/04/25 00:45:54;;;;;;;;;;;22.70;43.00;;;;;;696801;28;1156;-79
2022/04/25 00:46:20;;;;;;;;;;;22.60;43.10;;;;;;697027;28;814;-80
2022/04/25 00:46:41;;;;;;;;;;;22.60;43.20;;;;;;696920;28;834;-79
2022/04/25 00:47:02;;;;;;;;;;;22.70;43.20;;;;;;697045;28;790;-80
2022/04/25 00:47:23;;;;;;;;;;;22.60;44.30;;;;;;696977;28;1957;-81
2022/04/25 00:47:44;;;;;;;;;;;22.70;43.30;;;;;;696925;28;917;-80
2022/04/25 00:48:05;;;;;;;;;;;22.60;43.10;;;;;;697064;28;778;-82
2022/04/25 00:48:25;;;;;;;;;;;22.60;43.10;;;;;;696878;28;1178;-80
2022/04/25 00:48:46;;;;;;;;;;;22.70;43.20;;;;;;697019;28;838;-80
2022/04/25 00:49:07;;;;;;;;;;;22.70;43.10;;;;;;697112;28;818;-82
2022/04/25 00:49:27;;;;;;;;;;;22.70;43.10;;;;;;696770;28;952;-80
2022/04/25 00:49:49;;;;;;;;;;;22.70;43.10;;;;;;696927;28;770;-80
2022/04/25 00:50:10;;;;;;;;;;;22.70;43.20;;;;;;696755;28;882;-80
2022/04/25 00:50:31;;;;;;;;;;;22.70;43.00;;;;;;696936;28;909;-80
2022/04/25 00:50:52;;;;;;;;;;;22.70;43.00;;;;;;696739;28;782;-80
2022/04/25 00:51:12;;;;;;;;;;;22.70;43.10;;;;;;696805;28;921;-80
2022/04/25 00:51:33;;;;;;;;;;;22.70;43.00;;;;;;694084;28;1569;-79
2022/04/25 00:51:54;;;;;;;;;;;22.70;43.00;;;;;;691248;28;1247;-80
2022/04/25 00:52:14;;;;;;;;;;;22.70;43.10;;;;;;691349;28;1306;-79
2022/04/25 00:52:35;;;;;;;;;;;22.60;42.90;;;;;;691517;28;833;-81
2022/04/25 00:52:56;;;;;;;;;;;22.60;42.80;;;;;;691561;28;806;-81
2022/04/25 00:53:16;;;;;;;;;;;22.60;42.80;;;;;;692251;28;778;-82
2022/04/25 00:53:37;;;;;;;;;;;22.60;42.70;;;;;;694858;28;798;-81
2022/04/25 00:53:58;;;;;;;;;;;22.60;42.70;;;;;;697389;28;873;-80
2022/04/25 00:54:22;;;;;;;;;;;22.60;42.80;;;;;;697532;28;779;-79
2022/04/25 00:54:43;;;;;;;;;;;22.60;42.70;;;;;;697127;28;895;-80
2022/04/25 00:55:08;;;;;;;;;;;22.60;42.80;;;;;;697514;28;953;-82
2022/04/25 00:55:29;;;;;;;;;;;22.60;43.00;;;;;;697621;28;850;-81
2022/04/25 00:55:50;;;;;;;;;;;22.60;42.90;;;;;;697296;28;834;-79
2022/04/25 00:56:11;;;;;;;;;;;22.60;42.80;;;;;;697704;28;953;-80
2022/04/25 00:56:32;;;;;;;;;;;22.60;42.60;;;;;;697411;28;1070;-82
2022/04/25 00:56:54;;;;;;;;;;;22.60;42.70;;;;;;696954;28;846;-82
2022/04/25 00:57:15;;;;;;;;;;;22.60;42.80;;;;;;696972;28;881;-80
2022/04/25 00:57:36;;;;;;;;;;;22.60;42.90;;;;;;697074;28;885;-81
2022/04/25 00:57:57;;;;;;;;;;;22.60;42.80;;;;;;696729;28;1864;-81
2022/04/25 00:58:18;;;;;;;;;;;22.60;42.80;;;;;;697046;28;818;-81
2022/04/25 00:58:39;;;;;;;;;;;22.60;42.80;;;;;;696986;28;842;-80
2022/04/25 00:59:00;;;;;;;;;;;22.60;42.70;;;;;;697010;28;830;-81
2022/04/25 00:59:21;;;;;;;;;;;22.60;42.90;;;;;;696913;28;859;-82
2022/04/25 00:59:43;;;;;;;;;;;22.60;42.90;;;;;;696959;28;853;-80
2022/04/25 01:00:05;;;;;;;;;;;22.60;42.90;;;;;;697057;28;806;-82
2022/04/25 01:00:25;;;;;;;;;;;22.60;42.80;;;;;;696893;28;949;-81
2022/04/25 01:00:46;;;;;;;;;;;22.60;42.70;;;;;;696957;28;842;-82
2022/04/25 01:01:07;;;;;;;;;;;22.60;42.80;;;;;;697134;28;826;-82
2022/04/25 01:01:27;;;;;;;;;;;24.00;43.50;;;;;;696986;28;877;-82
2022/04/25 01:01:51;;;;;;;;;;;22.60;42.80;;;;;;693854;28;1495;-83
2022/04/25 01:02:11;;;;;;;;;;;22.60;42.90;;;;;;694156;28;865;-82
2022/04/25 01:02:32;;;;;;;;;;;22.60;42.90;;;;;;694101;28;925;-82
2022/04/25 01:02:53;;;;;;;;;;;22.60;42.90;;;;;;693998;28;830;-80
2022/04/25 01:03:13;;;;;;;;;;;22.60;42.80;;;;;;693981;28;845;-81
2022/04/25 01:03:34;;;;;;;;;;;22.60;42.80;;;;;;694833;28;978;-81
2022/04/25 01:03:54;;;;;;;;;;;22.60;42.80;;;;;;696880;28;864;-81
2022/04/25 01:04:15;;;;;;;;;;;22.60;42.80;;;;;;697007;28;798;-82
2022/04/25 01:04:36;;;;;;;;;;;22.60;42.80;;;;;;697051;28;870;-79
2022/04/25 01:04:58;;;;;;;;;;;22.60;42.80;;;;;;697080;28;857;-82
2022/04/25 01:05:19;;;;;;;;;;;22.60;43.00;;;;;;697062;28;794;-82
2022/04/25 01:05:39;;;;;;;;;;;22.60;42.90;;;;;;696936;28;835;-81
2022/04/25 01:06:00;;;;;;;;;;;22.60;43.00;;;;;;696926;28;1173;-82
2022/04/25 01:06:20;;;;;;;;;;;22.60;43.00;;;;;;696980;28;1040;-80
2022/04/25 01:06:41;;;;;;;;;;;22.60;42.90;;;;;;696940;28;882;-82
2022/04/25 01:07:01;;;;;;;;;;;22.60;42.90;;;;;;697021;28;873;-80
2022/04/25 01:07:22;;;;;;;;;;;22.60;42.90;;;;;;696868;28;1902;-81
2022/04/25 01:07:42;;;;;;;;;;;22.60;42.70;;;;;;696904;28;786;-79
2022/04/25 01:08:03;;;;;;;;;;;22.60;42.90;;;;;;697027;28;861;-82
2022/04/25 01:08:26;;;;;;;;;;;22.60;42.80;;;;;;696906;28;799;-81
2022/04/25 01:08:46;;;;;;;;;;;22.60;42.80;;;;;;693994;28;1345;-82
2022/04/25 01:09:07;;;;;;;;;;;22.60;42.80;;;;;;694075;28;1400;-80
2022/04/25 01:09:28;;;;;;;;;;;22.60;42.90;;;;;;694007;28;872;-80
2022/04/25 01:09:48;;;;;;;;;;;22.60;42.80;;;;;;694014;28;814;-82
2022/04/25 01:10:10;;;;;;;;;;;22.60;42.80;;;;;;693990;28;782;-82
2022/04/25 01:10:31;;;;;;;;;;;22.60;42.90;;;;;;694898;28;999;-82
2022/04/25 01:10:51;;;;;;;;;;;22.60;42.70;;;;;;697419;28;845;-80
2022/04/25 01:11:13;;;;;;;;;;;22.60;42.70;;;;;;697093;28;771;-80
2022/04/25 01:11:34;;;;;;;;;;;22.60;42.70;;;;;;697458;28;982;-80
2022/04/25 01:11:58;;;;;;;;;;;22.60;42.90;;;;;;697529;28;822;-81
2022/04/25 01:12:18;;;;;;;;;;;22.60;43.00;;;;;;694273;28;1215;-81
2022/04/25 01:12:39;;;;;;;;;;;22.60;43.00;;;;;;694684;28;829;-81
2022/04/25 01:13:00;;;;;;;;;;;22.60;42.80;;;;;;694376;28;1427;-79
2022/04/25 01:13:20;;;;;;;;;;;22.60;42.70;;;;;;694132;28;823;-80
2022/04/25 01:13:43;;;;;;;;;;;22.60;42.80;;;;;;693917;28;942;-82
2022/04/25 01:14:18;;;;;;;;;;;22.60;42.90;;;;;;694709;28;889;-81
2022/04/25 01:14:38;;;;;;;;;;;22.60;43.00;;;;;;696906;28;904;-81
2022/04/25 01:15:02;;;;;;;;;;;22.60;42.90;;;;;;697029;28;795;-82
2022/04/25 01:15:22;;;;;;;;;;;22.60;43.00;;;;;;696925;28;830;-80
2022/04/25 01:15:43;;;;;;;;;;;22.60;43.00;;;;;;697002;28;929;-79
2022/04/25 01:16:03;;;;;;;;;;;22.60;43.00;;;;;;696963;28;540;-82
2022/04/25 01:16:24;;;;;;;;;;;22.60;43.10;;;;;;696923;28;866;-82
2022/04/25 01:16:45;;;;;;;;;;;22.60;43.10;;;;;;696947;28;782;-81
2022/04/25 01:17:07;;;;;;;;;;;22.60;43.00;;;;;;693666;28;1283;-82
2022/04/25 01:17:27;;;;;;;;;;;22.60;43.00;;;;;;693878;28;795;-80
2022/04/25 01:17:48;;;;;;;;;;;22.60;43.00;;;;;;693995;28;786;-80
2022/04/25 01:18:09;;;;;;;;;;;22.60;43.10;;;;;;694033;28;767;-80
2022/04/25 01:18:31;;;;;;;;;;;22.60;43.10;;;;;;694170;28;873;-79
2022/04/25 01:18:51;;;;;;;;;;;22.60;42.90;;;;;;694668;28;929;-80
2022/04/25 01:19:12;;;;;;;;;;;22.60;42.90;;;;;;696904;28;913;-80
2022/04/25 01:19:32;;;;;;;;;;;22.60;43.00;;;;;;697019;28;910;-81
2022/04/25 01:19:53;;;;;;;;;;;22.60;42.90;;;;;;697306;28;846;-80
2022/04/25 01:20:14;;;;;;;;;;;22.60;42.90;;;;;;697381;28;803;-82
2022/04/25 01:20:34;;;;;;;;;;;22.60;43.00;;;;;;697707;28;862;-81
2022/04/25 01:20:57;;;;;;;;;;;22.60;43.00;;;;;;697602;28;766;-80
2022/04/25 01:21:19;;;;;;;;;;;22.60;42.90;;;;;;697432;28;874;-82
2022/04/25 01:21:44;;;;;;;;;;;22.60;43.10;;;;;;697554;28;830;-81
2022/04/25 01:22:10;;;;;;;;;;;22.70;43.20;;;;;;697589;28;779;-82
2022/04/25 01:22:32;;;;;;;;;;;22.70;43.30;;;;;;697517;28;795;-81
2022/04/25 01:22:55;;;;;;;;;;;22.70;43.20;;;;;;697443;28;846;-83
2022/04/25 01:27:15;;;;;;;;;;;22.70;43.10;;;;;;696786;28;1893;-80
2022/04/25 01:27:36;;;;;;;;;;;22.70;43.00;;;;;;697459;28;850;-80
2022/04/25 01:27:57;;;;;;;;;;;22.70;42.90;;;;;;696560;28;1369;-79
2022/04/25 01:28:17;;;;;;;;;;;22.70;42.90;;;;;;697330;28;843;-79
2022/04/25 01:28:38;;;;;;;;;;;22.70;42.80;;;;;;697421;28;906;-80
2022/04/25 01:29:01;;;;;;;;;;;22.70;42.80;;;;;;697493;28;1039;-79
2022/04/25 01:29:21;;;;;;;;;;;22.70;42.80;;;;;;697147;28;881;-80
2022/04/25 01:29:48;;;;;;;;;;;22.70;42.80;;;;;;697235;28;471;-79
2022/04/25 01:30:09;;;;;;;;;;;22.70;42.80;;;;;;697416;28;795;-79
2022/04/25 01:30:31;;;;;;;;;;;22.70;42.80;;;;;;697439;28;882;-78
2022/04/25 01:30:52;;;;;;;;;;;22.70;42.80;;;;;;697471;28;787;-78
2022/04/25 01:31:12;;;;;;;;;;;22.70;42.80;;;;;;697243;28;929;-80
2022/04/25 01:31:33;;;;;;;;;;;22.70;42.70;;;;;;697680;28;889;-79
2022/04/25 01:31:54;;;;;;;;;;;22.70;42.60;;;;;;697538;28;802;-79
2022/04/25 01:32:15;;;;;;;;;;;22.70;42.80;;;;;;697238;28;643;-79
2022/04/25 01:32:37;;;;;;;;;;;22.70;42.70;;;;;;697402;28;839;-81
2022/04/25 01:32:58;;;;;;;;;;;22.70;42.70;;;;;;697388;28;846;-79
2022/04/25 01:33:19;;;;;;;;;;;22.70;42.70;;;;;;697179;28;890;-80
2022/04/25 01:33:39;;;;;;;;;;;22.70;42.60;;;;;;696842;28;934;-80
2022/04/25 01:34:01;;;;;;;;;;;22.70;42.60;;;;;;697620;28;815;-79
2022/04/25 01:34:21;;;;;;;;;;;22.70;42.60;;;;;;697015;28;845;-78
2022/04/25 01:34:42;;;;;;;;;;;22.70;42.60;;;;;;697024;28;878;-79
2022/04/25 01:35:02;;;;;;;;;;;22.70;42.60;;;;;;697331;28;794;-79
2022/04/25 01:35:23;;;;;;;;;;;22.70;42.60;;;;;;697023;28;826;-81
2022/04/25 01:35:44;;;;;;;;;;;22.70;42.60;;;;;;697531;28;850;-80
2022/04/25 01:36:04;;;;;;;;;;;22.70;42.60;;;;;;697660;28;802;-77
2022/04/25 01:36:25;;;;;;;;;;;22.70;42.40;;;;;;697245;28;833;-77
2022/04/25 01:36:45;;;;;;;;;;;22.70;42.50;;;;;;697063;28;882;-78
2022/04/25 01:37:16;;;;;;;;;;;22.70;42.50;;;;;;697025;28;905;-79
2022/04/25 01:37:37;;;;;;;;;;;22.70;42.50;;;;;;697039;28;774;-77
2022/04/25 01:37:57;;;;;;;;;;;22.40;42.40;;;;;;696828;28;837;-78
2022/04/25 01:38:20;;;;;;;;;;;22.70;42.50;;;;;;696758;28;823;-79
2022/04/25 01:38:40;;;;;;;;;;;22.70;42.50;;;;;;696899;28;819;-77
2022/04/25 01:39:01;;;;;;;;;;;22.70;42.60;;;;;;696996;28;802;-75
2022/04/25 01:39:21;;;;;;;;;;;22.70;42.70;;;;;;696859;28;878;-78
2022/04/25 01:39:52;;;;;;;;;;;22.80;42.60;;;;;;696921;28;881;-78
2022/04/25 01:40:12;;;;;;;;;;;22.70;42.60;;;;;;696828;28;830;-79
2022/04/25 01:40:33;;;;;;;;;;;22.80;42.60;;;;;;696888;28;1360;-79
2022/04/25 01:40:53;;;;;;;;;;;22.80;42.50;;;;;;696951;28;933;-79
2022/04/25 01:41:14;;;;;;;;;;;22.80;42.60;;;;;;693911;28;890;-78
2022/04/25 01:41:35;;;;;;;;;;;22.80;42.40;;;;;;694068;28;949;-79
2022/04/25 01:41:55;;;;;;;;;;;22.80;42.40;;;;;;694021;28;889;-77
2022/04/25 01:42:16;;;;;;;;;;;22.70;42.30;;;;;;693933;28;929;-78
2022/04/25 01:42:36;;;;;;;;;;;22.70;42.30;;;;;;694035;28;838;-77
2022/04/25 01:42:57;;;;;;;;;;;22.80;42.40;;;;;;694299;28;841;-77
2022/04/25 01:43:17;;;;;;;;;;;22.80;42.40;;;;;;696855;28;850;-79
2022/04/25 01:43:38;;;;;;;;;;;22.70;42.30;;;;;;696854;28;878;-77
2022/04/25 01:43:59;;;;;;;;;;;22.70;42.10;;;;;;696657;28;1442;-78
2022/04/25 01:44:19;;;;;;;;;;;22.80;42.30;;;;;;696584;28;893;-80
2022/04/25 01:44:40;;;;;;;;;;;22.80;42.30;;;;;;696753;28;842;-78
2022/04/25 01:45:00;;;;;;;;;;;22.70;42.30;;;;;;696770;28;981;-79
2022/04/25 01:45:22;;;;;;;;;;;22.80;42.40;;;;;;696545;28;874;-79
2022/04/25 01:45:43;;;;;;;;;;;22.80;42.20;;;;;;696574;28;1124;-79
2022/04/25 01:46:04;;;;;;;;;;;22.80;42.10;;;;;;696958;28;893;-77
2022/04/25 01:46:25;;;;;;;;;;;22.80;42.00;;;;;;696897;28;838;-80
2022/04/25 01:46:45;;;;;;;;;;;22.80;42.10;;;;;;696827;28;798;-78
2022/04/25 01:47:06;;;;;;;;;;;22.80;42.20;;;;;;696855;28;1018;-78
2022/04/25 01:47:27;;;;;;;;;;;22.70;42.00;;;;;;696805;28;1957;-79
2022/04/25 01:47:47;;;;;;;;;;;22.80;42.00;;;;;;696867;28;989;-79
2022/04/25 01:48:08;;;;;;;;;;;22.70;41.90;;;;;;696963;28;906;-79
2022/04/25 01:48:29;;;;;;;;;;;22.70;41.90;;;;;;696923;28;894;-78
2022/04/25 01:48:50;;;;;;;;;;;22.70;41.80;;;;;;696901;28;798;-80
2022/04/25 01:49:10;;;;;;;;;;;22.70;42.00;;;;;;693377;28;827;-78
2022/04/25 01:49:32;;;;;;;;;;;22.70;42.10;;;;;;693915;28;929;-80
2022/04/25 01:49:52;;;;;;;;;;;22.70;42.00;;;;;;693968;28;838;-77
2022/04/25 01:50:13;;;;;;;;;;;22.70;42.00;;;;;;693845;28;1460;-78
2022/04/25 01:50:33;;;;;;;;;;;22.70;42.10;;;;;;693984;28;886;-79
2022/04/25 01:50:54;;;;;;;;;;;22.70;42.10;;;;;;694260;28;810;-78
2022/04/25 01:51:15;;;;;;;;;;;22.70;41.90;;;;;;696732;28;854;-78
2022/04/25 01:51:38;;;;;;;;;;;22.70;41.90;;;;;;696864;28;778;-77
2022/04/25 01:52:17;;;;;;;;;;;22.70;41.90;;;;;;696951;28;890;-79
2022/04/25 01:52:38;;;;;;;;;;;22.70;42.10;;;;;;697041;28;786;-78
2022/04/25 01:52:59;;;;;;;;;;;22.70;42.40;;;;;;696957;28;914;-77
2022/04/25 01:53:19;;;;;;;;;;;22.70;42.20;;;;;;696747;28;850;-77
2022/04/25 01:53:40;;;;;;;;;;;22.70;42.00;;;;;;696827;28;882;-79
2022/04/25 01:54:00;;;;;;;;;;;22.70;42.00;;;;;;697037;28;1050;-79
2022/04/25 01:54:27;;;;;;;;;;;22.70;41.80;;;;;;696791;28;851;-78
2022/04/25 01:54:48;;;;;;;;;;;22.70;41.90;;;;;;696873;28;949;-79
2022/04/25 01:55:08;;;;;;;;;;;22.70;42.00;;;;;;695877;28;1333;-78
2022/04/25 01:55:29;;;;;;;;;;;22.70;42.10;;;;;;696716;28;862;-78
2022/04/25 01:55:50;;;;;;;;;;;22.70;42.20;;;;;;696586;28;977;-77
2022/04/25 01:56:10;;;;;;;;;;;22.70;42.00;;;;;;696623;28;834;-79
2022/04/25 01:56:32;;;;;;;;;;;22.70;42.10;;;;;;696668;28;1006;-78
2022/04/25 01:56:53;;;;;;;;;;;22.70;42.00;;;;;;696631;28;878;-77
2022/04/25 01:57:15;;;;;;;;;;;22.70;42.10;;;;;;696764;28;881;-77
2022/04/25 01:57:36;;;;;;;;;;;22.70;42.00;;;;;;696859;28;775;-77
2022/04/25 01:57:56;;;;;;;;;;;22.70;41.90;;;;;;696801;28;823;-78
2022/04/25 01:58:17;;;;;;;;;;;22.70;41.70;;;;;;696824;28;870;-80
2022/04/25 01:58:38;;;;;;;;;;;22.70;41.70;;;;;;696954;28;882;-80
2022/04/25 01:58:58;;;;;;;;;;;22.60;41.80;;;;;;696920;28;822;-80
2022/04/25 01:59:19;;;;;;;;;;;22.70;42.10;;;;;;696472;28;1157;-78
2022/04/25 01:59:40;;;;;;;;;;;22.70;42.10;;;;;;696680;28;846;-77
2022/04/25 02:00:00;;;;;;;;;;;22.70;42.20;;;;;;696882;28;894;-77
2022/04/25 02:00:21;;;;;;;;;;;22.70;42.10;;;;;;696743;28;802;-78
2022/04/25 02:00:41;;;;;;;;;;;22.70;42.00;;;;;;696769;28;878;-77
2022/04/25 02:01:05;;;;;;;;;;;22.70;41.80;;;;;;696941;28;798;-78
2022/04/25 02:01:25;;;;;;;;;;;22.70;41.80;;;;;;696867;28;779;-77
2022/04/25 02:01:46;;;;;;;;;;;22.70;41.90;;;;;;696730;28;787;-77
2022/04/25 02:02:08;;;;;;;;;;;22.70;42.00;;;;;;696901;28;766;-78
2022/04/25 02:02:29;;;;;;;;;;;22.70;41.90;;;;;;696891;28;890;-77
2022/04/25 02:02:49;;;;;;;;;;;22.70;41.80;;;;;;696783;28;834;-78
2022/04/25 02:03:10;;;;;;;;;;;22.70;41.70;;;;;;693740;28;1396;-78
2022/04/25 02:03:33;;;;;;;;;;;22.70;41.70;;;;;;693949;28;1238;-78
2022/04/25 02:03:53;;;;;;;;;;;22.70;41.90;;;;;;693764;28;865;-77
2022/04/25 02:04:14;;;;;;;;;;;22.60;41.90;;;;;;693857;28;787;-78
2022/04/25 02:04:34;;;;;;;;;;;22.70;42.00;;;;;;693934;28;918;-78
2022/04/25 02:04:55;;;;;;;;;;;22.60;41.60;;;;;;694425;28;851;-79
2022/04/25 02:05:16;;;;;;;;;;;22.60;41.70;;;;;;696696;28;779;-77
2022/04/25 02:05:36;;;;;;;;;;;22.60;41.70;;;;;;696757;28;901;-78
2022/04/25 02:05:57;;;;;;;;;;;22.60;41.60;;;;;;696633;28;853;-78
2022/04/25 02:06:17;;;;;;;;;;;22.60;41.60;;;;;;696635;28;909;-78
2022/04/25 02:06:38;;;;;;;;;;;22.60;41.50;;;;;;696856;28;858;-77
2022/04/25 02:06:58;;;;;;;;;;;22.60;41.50;;;;;;696713;28;782;-79
2022/04/25 02:07:19;;;;;;;;;;;22.60;41.60;;;;;;696702;28;1945;-78
2022/04/25 02:07:40;;;;;;;;;;;22.60;41.80;;;;;;693690;28;1242;-79
2022/04/25 02:08:01;;;;;;;;;;;22.60;41.90;;;;;;693865;28;855;-79
2022/04/25 02:08:22;;;;;;;;;;;22.60;41.70;;;;;;693835;28;890;-79
2022/04/25 02:08:43;;;;;;;;;;;22.60;41.60;;;;;;693903;28;790;-79
2022/04/25 02:09:04;;;;;;;;;;;22.60;41.50;;;;;;693821;28;849;-81
2022/04/25 02:09:26;;;;;;;;;;;22.60;42.80;;;;;;694177;28;1109;-80
2022/04/25 02:09:46;;;;;;;;;;;22.60;41.70;;;;;;696546;28;861;-79
2022/04/25 02:10:07;;;;;;;;;;;22.60;41.60;;;;;;696614;28;867;-79
2022/04/25 02:10:28;;;;;;;;;;;23.10;41.90;;;;;;696538;28;909;-79
2022/04/25 02:11:19;;;;;;;;;;;22.60;41.70;;;;;;696069;28;846;-80
2022/04/25 02:11:31;;;;;;;;;;;22.60;41.50;;;;;;696704;28;1040;-81
2022/04/25 02:11:51;;;;;;;;;;;22.60;41.90;;;;;;696775;28;973;-79
2022/04/25 02:12:12;;;;;;;;;;;22.60;41.90;;;;;;696630;28;926;-79
2022/04/25 02:12:32;;;;;;;;;;;22.60;41.90;;;;;;696931;28;871;-82